Time;durP1;ratioP1;P1;durP2;ratioP2;P2;SDS_P1;SDS_P2;PMS_P1;PMS_P2;Temp;Humidity;BMP_temperature;BMP_pressure;BME280_temperature;BME280_humidity;BME280_pressure;Samples;Min_cycle;Max_cycle;Signal;HPM_P1;HPM_P2
2023/10/06 00:01:48;;;;;;;6.22;4.90;;;9.90;99.90;;;;;;4974185;28;20030;-89
2023/10/06 00:04:15;;;;;;;6.20;5.38;;;9.90;99.90;;;;;;4975602;28;20031;-89
2023/10/06 00:06:42;;;;;;;6.28;5.50;;;9.90;99.90;;;;;;4982140;28;20046;-89
2023/10/06 00:09:25;;;;;;;6.47;5.88;;;9.90;99.90;;;;;;4978085;28;20113;-93
2023/10/06 00:11:52;;;;;;;6.88;5.97;;;9.80;99.90;;;;;;4961729;28;20050;-90
2023/10/06 00:14:39;;;;;;;9.02;3.42;;;9.70;99.90;;;;;;4973676;28;20452;-90
2023/10/06 00:17:17;;;;;;;5.53;5.03;;;9.80;99.90;;;;;;4980000;28;20101;-90
2023/10/06 00:19:44;;;;;;;10.13;5.15;;;9.80;99.90;;;;;;4979178;28;20027;-89
2023/10/06 00:24:41;;;;;;;6.38;5.65;;;9.60;99.90;;;;;;4980576;28;20058;-90
2023/10/06 00:27:11;;;;;;;6.90;5.03;;;9.60;99.90;;;;;;4979539;28;20480;-90
2023/10/06 00:29:43;;;;;;;8.98;5.93;;;9.60;99.90;;;;;;4980817;28;20046;-90
2023/10/06 00:32:22;;;;;;;6.13;5.60;;;9.50;99.90;;;;;;4980489;28;20496;-89
2023/10/06 00:34:49;;;;;;;5.50;4.97;;;9.40;99.90;;;;;;4980788;28;20043;-89
2023/10/06 00:37:16;;;;;;;5.80;2.80;;;9.40;99.90;;;;;;4980246;28;20406;-89
2023/10/06 00:39:43;;;;;;;6.18;5.50;;;9.40;99.90;;;;;;4979666;28;20033;-87
2023/10/06 00:42:09;;;;;;;7.00;6.40;;;9.30;99.90;;;;;;4981067;28;20134;-91
2023/10/06 00:44:35;;;;;;;4.68;4.13;;;9.30;99.90;;;;;;4980538;28;20023;-89
2023/10/06 00:47:05;;;;;;;7.20;5.53;;;9.20;99.90;;;;;;4979940;28;20039;-88
2023/10/06 00:49:32;;;;;;;6.28;5.43;;;9.20;99.90;;;;;;4979648;28;20061;-91
2023/10/06 00:51:59;;;;;;;7.35;6.25;;;9.30;99.90;;;;;;4980147;28;20023;-89
2023/10/06 00:54:26;;;;;;;6.28;5.45;;;9.30;99.90;;;;;;4979856;28;20030;-90
2023/10/06 00:56:58;;;;;;;6.15;4.35;;;9.30;99.90;;;;;;4980124;28;20038;-89
2023/10/06 00:59:26;;;;;;;6.70;5.72;;;9.30;99.90;;;;;;4958874;29;20039;-88
2023/10/06 01:01:55;;;;;;;6.57;5.90;;;9.30;99.90;;;;;;4969828;28;20029;-91
2023/10/06 01:04:24;;;;;;;6.15;5.22;;;9.30;99.90;;;;;;4970264;28;20023;-90
2023/10/06 01:06:54;;;;;;;8.07;6.05;;;9.30;99.90;;;;;;4979524;28;20027;-90
2023/10/06 01:09:30;;;;;;;6.65;4.93;;;9.30;99.90;;;;;;4977933;28;20023;-92
2023/10/06 01:11:57;;;;;;;6.43;5.53;;;9.20;99.90;;;;;;4975372;28;20086;-90
2023/10/06 01:14:26;;;;;;;6.70;5.10;;;9.20;99.90;;;;;;4961405;28;20114;-88
2023/10/06 01:17:03;;;;;;;7.05;6.38;;;9.20;99.90;;;;;;4971396;28;20057;-88
2023/10/06 01:19:33;;;;;;;6.82;5.25;;;9.30;99.90;;;;;;4965988;28;20027;-90
2023/10/06 01:22:20;;;;;;;7.13;6.03;;;9.30;99.90;;;;;;4979013;28;20086;-90
2023/10/06 01:24:45;;;;;;;7.25;6.25;;;9.30;99.90;;;;;;4979434;28;20110;-89
2023/10/06 01:27:11;;;;;;;6.97;5.05;;;9.20;99.90;;;;;;4979581;28;20051;-87
2023/10/06 01:29:38;;;;;;;7.32;6.63;;;9.20;99.90;;;;;;4980203;28;20051;-90
2023/10/06 01:32:05;;;;;;;7.38;6.68;;;9.20;99.90;;;;;;4980364;28;20030;-89
2023/10/06 01:34:40;;;;;;;8.07;5.70;;;9.10;99.90;;;;;;4979802;28;20018;-89
2023/10/06 01:37:07;;;;;;;5.40;4.28;;;9.10;99.90;;;;;;4981425;28;20733;-89
2023/10/06 01:39:36;;;;;;;6.30;5.70;;;9.00;99.90;;;;;;4983005;28;20034;-87
2023/10/06 01:42:17;;;;;;;9.25;6.95;;;9.00;99.90;;;;;;4982760;28;20035;-87
2023/10/06 01:44:43;;;;;;;8.32;5.80;;;9.00;99.90;;;;;;4979943;28;20026;-90
2023/10/06 01:47:10;;;;;;;10.52;7.03;;;9.00;99.90;;;;;;4979902;28;20026;-89
2023/10/06 01:49:37;;;;;;;8.98;8.27;;;9.00;99.90;;;;;;4983076;28;20025;-88
2023/10/06 01:52:04;;;;;;;7.10;4.65;;;8.90;99.90;;;;;;4983957;28;20026;-90
2023/10/06 01:54:34;;;;;;;8.75;6.65;;;8.90;99.90;;;;;;4982892;28;20027;-89
2023/10/06 01:57:11;;;;;;;6.35;5.45;;;8.90;99.90;;;;;;4997770;28;20054;-90
2023/10/06 01:59:37;;;;;;;6.20;5.50;;;8.80;99.90;;;;;;4982740;28;20082;-88
2023/10/06 02:02:07;;;;;;;9.00;8.10;;;8.80;99.90;;;;;;4982105;28;20026;-89
2023/10/06 02:04:45;;;;;;;8.88;6.57;;;8.70;99.90;;;;;;4996057;28;20014;-91
2023/10/06 02:07:11;;;;;;;8.18;5.90;;;8.60;99.90;;;;;;4997243;28;20029;-90
2023/10/06 02:09:39;;;;;;;7.28;5.35;;;8.70;99.90;;;;;;4982055;28;20105;-89
2023/10/06 02:12:05;;;;;;;8.52;6.78;;;8.70;99.90;;;;;;4981009;28;20037;-89
2023/10/06 02:14:31;;;;;;;7.60;6.55;;;8.60;99.90;;;;;;4998122;28;20023;-89
2023/10/06 02:17:04;;;;;;;7.80;7.13;;;8.60;99.90;;;;;;4982787;28;20034;-87
2023/10/06 02:19:32;;;;;;;8.20;5.55;;;8.60;99.90;;;;;;4982351;28;20463;-90
2023/10/06 02:21:58;;;;;;;;;;;8.60;99.90;;;;;;4981551;28;20050;-88
2023/10/06 02:24:23;;;;;;;7.32;5.95;;;8.60;99.90;;;;;;4982700;28;19960;-88
2023/10/06 02:27:01;;;;;;;7.18;6.57;;;8.60;99.90;;;;;;4982590;28;20504;-89
2023/10/06 02:29:26;;;;;;;6.88;6.32;;;8.60;99.90;;;;;;4962476;28;20029;-89
2023/10/06 02:32:00;;;;;;;6.72;6.15;;;8.70;99.90;;;;;;4978674;28;20054;-90
2023/10/06 02:34:29;;;;;;;7.10;6.47;;;8.70;99.90;;;;;;4962091;29;20035;-89
2023/10/06 02:37:00;;;;;;;8.13;7.32;;;8.80;99.90;;;;;;4978771;28;20039;-92
2023/10/06 02:39:28;;;;;;;11.70;6.45;;;8.90;99.90;;;;;;4982167;28;20034;-89
2023/10/06 02:41:57;;;;;;;12.10;6.05;;;8.90;99.90;;;;;;4981143;28;20452;-90
2023/10/06 02:44:24;;;;;;;11.13;6.30;;;8.90;99.90;;;;;;4977690;28;20019;-89
2023/10/06 02:46:53;;;;;;;9.93;7.65;;;8.90;99.90;;;;;;4963030;28;20031;-89
2023/10/06 02:49:31;;;;;;;11.55;6.70;;;9.00;99.90;;;;;;4973945;28;20065;-89
2023/10/06 02:52:06;;;;;;;15.27;6.60;;;9.10;99.90;;;;;;4985773;28;20031;-89
2023/10/06 02:54:32;;;;;;;7.10;5.97;;;9.10;99.90;;;;;;4982852;28;20026;-89
2023/10/06 02:56:58;;;;;;;13.10;8.23;;;9.20;99.90;;;;;;4981381;28;20038;-91
2023/10/06 02:59:33;;;;;;;7.60;6.22;;;9.20;99.90;;;;;;4981071;28;20034;-89
2023/10/06 03:02:06;;;;;;;11.00;6.68;;;9.20;99.90;;;;;;4980775;28;20035;-89
2023/10/06 03:04:36;;;;;;;13.52;8.07;;;9.10;99.90;;;;;;4981160;28;20487;-89
2023/10/06 03:07:04;;;;;;;9.95;6.72;;;9.20;99.90;;;;;;4982090;28;20030;-91
2023/10/06 03:12:11;;;;;;;18.65;8.70;;;9.30;99.90;;;;;;4981407;28;20069;-88
2023/10/06 03:14:37;;;;;;;22.98;8.02;;;9.20;99.90;;;;;;4983566;28;20027;-89
2023/10/06 03:17:06;;;;;;;16.27;8.02;;;9.30;99.90;;;;;;4984761;28;20030;-87
2023/10/06 03:19:33;;;;;;;14.60;7.47;;;9.30;99.90;;;;;;4983286;28;20037;-89
2023/10/06 03:22:04;;;;;;;9.65;8.60;;;9.40;99.90;;;;;;4984570;28;20033;-89
2023/10/06 03:24:33;;;;;;;15.38;6.85;;;9.40;99.90;;;;;;4982192;28;20049;-87
2023/10/06 03:27:04;;;;;;;16.15;8.65;;;9.50;99.90;;;;;;4981091;28;20029;-90
2023/10/06 03:32:22;;;;;;;9.60;7.68;;;9.40;99.90;;;;;;4983205;28;20081;-90
2023/10/06 03:34:51;;;;;;;14.25;6.13;;;9.40;99.90;;;;;;4981054;28;20370;-90
2023/10/06 03:37:34;;;;;;;20.73;7.97;;;9.40;99.90;;;;;;4982150;28;20023;-89
2023/10/06 03:40:10;;;;;;;12.10;7.13;;;9.40;99.90;;;;;;4997676;28;20033;-90
2023/10/06 03:42:37;;;;;;;8.55;7.75;;;9.50;99.90;;;;;;4982687;28;20038;-89
2023/10/06 03:45:20;;;;;;;15.73;6.60;;;9.40;99.90;;;;;;4982296;28;20027;-88
2023/10/06 03:47:48;;;;;;;16.20;6.78;;;9.50;99.90;;;;;;4977247;28;20083;-92
2023/10/06 03:50:15;;;;;;;20.73;6.43;;;9.40;99.90;;;;;;4979276;28;20034;-90
2023/10/06 03:52:41;;;;;;;16.45;7.40;;;9.40;99.90;;;;;;4981521;28;20477;-88
2023/10/06 03:55:07;;;;;;;15.95;8.05;;;9.40;99.90;;;;;;4981933;28;20085;-89
2023/10/06 03:57:32;;;;;;;18.10;6.63;;;9.40;99.90;;;;;;4981527;28;20069;-90
2023/10/06 03:59:58;;;;;;;11.57;6.70;;;9.50;99.90;;;;;;4979980;28;20031;-89
2023/10/06 04:02:38;;;;;;;6.25;5.65;;;9.50;99.90;;;;;;4979622;28;20050;-90
2023/10/06 04:05:06;;;;;;;8.85;5.55;;;9.50;99.90;;;;;;4979373;28;20082;-89
2023/10/06 04:07:32;;;;;;;23.63;6.38;;;9.50;99.90;;;;;;4980236;28;20437;-88
2023/10/06 04:09:58;;;;;;;9.00;3.50;;;9.50;99.90;;;;;;4980070;28;20389;-89
2023/10/06 04:12:23;;;;;;;5.68;5.00;;;9.60;99.90;;;;;;4994724;28;20027;-88
2023/10/06 04:14:49;;;;;;;6.03;5.43;;;9.60;99.90;;;;;;4980713;28;20031;-90
2023/10/06 04:17:21;;;;;;;12.88;4.97;;;9.60;99.90;;;;;;4980656;28;20035;-89
2023/10/06 04:19:48;;;;;;;6.63;6.13;;;9.50;99.90;;;;;;4977265;28;20532;-90
2023/10/06 04:22:14;;;;;;;6.65;6.05;;;9.50;99.90;;;;;;4981012;28;20512;-87
2023/10/06 04:24:40;;;;;;;6.18;5.57;;;9.50;99.90;;;;;;4979886;28;20154;-89
2023/10/06 04:27:06;;;;;;;19.63;7.03;;;9.50;99.90;;;;;;4980405;28;20022;-89
2023/10/06 04:29:35;;;;;;;10.48;6.72;;;9.40;99.90;;;;;;4979967;28;20053;-87
2023/10/06 04:32:01;;;;;;;14.15;6.15;;;9.30;99.90;;;;;;4983751;28;20023;-88
2023/10/06 04:34:33;;;;;;;52.67;9.02;;;9.20;99.90;;;;;;4987111;28;20023;-89
2023/10/06 04:37:00;;;;;;;41.92;7.10;;;9.20;99.90;;;;;;4979479;28;20031;-89
2023/10/06 04:39:26;;;;;;;26.35;7.45;;;9.20;99.90;;;;;;4978560;28;20026;-90
2023/10/06 04:41:55;;;;;;;7.90;5.47;;;9.10;99.90;;;;;;4984456;28;20027;-89
2023/10/06 04:44:21;;;;;;;73.13;9.75;;;9.10;99.90;;;;;;4973541;28;20029;-88
2023/10/06 04:46:46;;;;;;;11.45;5.38;;;9.10;99.90;;;;;;4991793;28;20027;-90
2023/10/06 04:49:12;;;;;;;8.70;6.22;;;9.10;99.90;;;;;;4973824;28;20147;-87
2023/10/06 04:51:38;;;;;;;16.17;7.20;;;9.10;99.90;;;;;;4978239;28;20059;-89
2023/10/06 04:54:07;;;;;;;14.57;6.55;;;9.10;99.90;;;;;;4978561;28;20097;-88
2023/10/06 04:56:33;;;;;;;26.85;8.95;;;9.10;99.90;;;;;;4979421;28;20042;-87
2023/10/06 04:58:59;;;;;;;65.82;10.30;;;9.10;99.90;;;;;;4977468;28;20031;-91
2023/10/06 05:01:29;;;;;;;63.78;9.10;;;9.00;99.90;;;;;;4977976;28;20022;-86
2023/10/06 05:03:54;;;;;;;39.22;8.45;;;8.80;99.90;;;;;;4978026;28;20026;-89
2023/10/06 05:06:21;;;;;;;18.88;6.88;;;8.80;99.90;;;;;;4977466;28;20046;-88
2023/10/06 05:08:47;;;;;;;11.65;5.70;;;8.80;99.90;;;;;;4978476;28;20023;-88
2023/10/06 05:11:18;;;;;;;15.35;6.30;;;8.80;99.90;;;;;;4976817;28;20033;-89
2023/10/06 05:13:43;;;;;;;33.20;11.27;;;8.60;99.90;;;;;;4978562;28;20027;-88
2023/10/06 05:16:11;;;;;;;14.05;5.18;;;8.70;99.90;;;;;;4977156;28;20121;-88
2023/10/06 05:18:40;;;;;;;19.00;6.55;;;8.70;99.90;;;;;;4977711;28;20022;-87
2023/10/06 05:21:09;;;;;;;10.02;5.40;;;8.80;99.90;;;;;;4976556;28;20465;-87
2023/10/06 05:23:35;;;;;;;14.10;7.35;;;8.70;99.90;;;;;;4979190;28;20039;-90
2023/10/06 05:26:07;;;;;;;10.10;6.32;;;8.70;99.90;;;;;;4981600;28;20477;-88
2023/10/06 05:28:34;;;;;;;9.68;7.07;;;8.70;99.90;;;;;;4981585;28;20066;-88
2023/10/06 05:31:00;;;;;;;6.70;6.07;;;8.80;99.90;;;;;;4980111;28;20055;-88
2023/10/06 05:33:26;;;;;;;8.27;4.65;;;8.80;99.90;;;;;;4982861;28;20026;-88
2023/10/06 05:35:52;;;;;;;8.45;5.47;;;8.80;99.90;;;;;;4981995;28;20027;-86
2023/10/06 05:38:17;;;;;;;9.55;5.15;;;8.80;99.90;;;;;;4981131;28;20019;-88
2023/10/06 05:40:44;;;;;;;9.30;6.18;;;8.80;99.90;;;;;;4980257;28;20046;-91
2023/10/06 05:43:13;;;;;;;14.75;5.65;;;8.70;99.90;;;;;;4979833;28;20078;-88
2023/10/06 05:45:39;;;;;;;11.45;5.55;;;8.60;99.90;;;;;;4979858;28;20114;-87
2023/10/06 05:48:09;;;;;;;9.50;6.35;;;8.60;99.90;;;;;;4979888;28;20022;-88
2023/10/06 05:50:36;;;;;;;7.07;6.47;;;8.50;99.90;;;;;;4980553;28;20030;-88
2023/10/06 05:53:04;;;;;;;6.35;5.75;;;8.50;99.90;;;;;;4979693;28;20102;-88
2023/10/06 05:55:35;;;;;;;7.78;5.63;;;8.50;99.90;;;;;;4980160;28;20022;-89
2023/10/06 05:58:01;;;;;;;6.07;5.32;;;8.50;99.90;;;;;;4981262;28;20034;-88
2023/10/06 06:00:30;;;;;;;6.60;6.10;;;8.50;99.90;;;;;;4981120;28;20054;-87
2023/10/06 06:02:58;;;;;;;5.25;4.70;;;8.50;99.90;;;;;;4968074;28;20043;-88
2023/10/06 06:05:29;;;;;;;6.40;5.80;;;8.50;99.90;;;;;;4985946;28;20033;-88
2023/10/06 06:08:00;;;;;;;7.00;3.92;;;8.50;99.90;;;;;;4965653;28;20057;-87
2023/10/06 06:10:31;;;;;;;5.28;4.78;;;8.40;99.90;;;;;;4963404;28;20136;-89
2023/10/06 06:12:57;;;;;;;5.60;5.28;;;8.40;99.90;;;;;;4969381;28;20135;-90
2023/10/06 06:15:25;;;;;;;6.18;5.63;;;8.50;99.90;;;;;;4968634;28;20023;-88
2023/10/06 06:17:51;;;;;;;4.53;4.13;;;8.50;99.90;;;;;;4963210;28;20049;-87
2023/10/06 06:20:21;;;;;;;5.35;4.88;;;8.50;99.90;;;;;;4973317;28;20031;-89
2023/10/06 06:22:53;;;;;;;6.30;5.80;;;8.40;99.90;;;;;;4972935;28;20026;-90
2023/10/06 06:25:19;;;;;;;5.57;5.07;;;8.50;99.90;;;;;;4965603;28;20034;-89
2023/10/06 06:27:45;;;;;;;5.65;5.25;;;8.50;99.90;;;;;;4965860;28;20027;-87
2023/10/06 06:30:11;;;;;;;5.80;5.40;;;8.60;99.90;;;;;;4966550;28;20096;-88
2023/10/06 06:32:37;;;;;;;5.75;5.25;;;8.70;99.90;;;;;;4969746;28;20027;-90
2023/10/06 06:35:05;;;;;;;5.85;5.40;;;8.80;99.90;;;;;;4961371;28;20462;-91
2023/10/06 06:37:31;;;;;;;5.60;5.07;;;8.90;99.90;;;;;;4959858;28;20420;-91
2023/10/06 06:39:56;;;;;;;7.30;6.07;;;8.90;99.90;;;;;;4955547;28;20110;-87
2023/10/06 06:42:22;;;;;;;6.43;5.82;;;9.00;99.90;;;;;;4960231;28;20035;-87
2023/10/06 06:44:48;;;;;;;6.50;5.45;;;9.10;99.90;;;;;;4962708;28;20027;-90
2023/10/06 06:47:16;;;;;;;6.20;5.53;;;9.10;99.90;;;;;;4962138;28;20026;-90
2023/10/06 06:49:43;;;;;;;;;;;9.10;99.90;;;;;;4967675;28;20043;-88
2023/10/06 06:52:09;;;;;;;;;;;9.10;99.90;;;;;;4964964;28;19917;-87
2023/10/06 06:54:37;;;;;;;6.75;6.25;;;9.20;99.90;;;;;;4967385;28;20360;-90
2023/10/06 06:57:03;;;;;;;7.43;5.05;;;9.20;99.90;;;;;;4969084;28;20027;-88
2023/10/06 06:59:30;;;;;;;5.72;5.10;;;9.20;99.90;;;;;;4966330;28;20053;-90
2023/10/06 07:01:58;;;;;;;;;;;9.20;99.90;;;;;;4968790;28;20030;-89
2023/10/06 07:04:26;;;;;;;7.93;5.78;;;9.20;99.90;;;;;;4970142;28;20389;-88
2023/10/06 07:06:52;;;;;;;6.30;5.70;;;9.10;99.90;;;;;;4965580;28;20031;-89
2023/10/06 07:09:18;;;;;;;8.30;7.50;;;9.10;99.90;;;;;;4968596;28;20098;-91
2023/10/06 07:11:44;;;;;;;7.25;6.03;;;9.10;99.90;;;;;;4971315;28;20034;-89
2023/10/06 07:14:10;;;;;;;7.68;6.97;;;9.10;99.90;;;;;;4965843;28;20031;-88
2023/10/06 07:16:36;;;;;;;7.72;6.93;;;9.10;99.90;;;;;;4967564;28;20038;-87
2023/10/06 07:19:03;;;;;;;7.28;6.18;;;9.10;99.90;;;;;;4967547;28;20031;-91
2023/10/06 07:21:30;;;;;;;7.18;6.57;;;9.10;99.90;;;;;;4967055;28;20031;-87
2023/10/06 07:23:58;;;;;;;6.45;5.80;;;9.10;99.90;;;;;;4966250;28;20038;-86
2023/10/06 07:26:24;;;;;;;11.73;7.32;;;9.10;99.90;;;;;;4966815;28;20037;-91
2023/10/06 07:28:52;;;;;;;8.48;6.45;;;9.20;99.90;;;;;;4967516;28;20027;-88
2023/10/06 07:31:19;;;;;;;8.15;6.45;;;9.30;99.90;;;;;;4966271;28;20137;-89
2023/10/06 07:33:47;;;;;;;8.15;6.00;;;9.30;99.90;;;;;;4967565;28;20433;-93
2023/10/06 07:36:14;;;;;;;9.02;3.85;;;9.30;99.90;;;;;;4964503;28;20441;-90
2023/10/06 07:38:41;;;;;;;6.97;5.28;;;9.40;99.90;;;;;;4967963;28;20323;-93
2023/10/06 07:41:07;;;;;;;7.80;6.30;;;9.50;99.90;;;;;;4989951;28;20027;-87
2023/10/06 07:43:33;;;;;;;7.78;5.93;;;9.60;99.90;;;;;;4991804;28;20027;-87
2023/10/06 07:46:07;;;;;;;8.63;7.72;;;9.70;99.90;;;;;;4991934;28;20017;-89
2023/10/06 07:48:36;;;;;;;8.82;7.00;;;9.70;99.90;;;;;;4991846;28;20019;-89
2023/10/06 07:51:09;;;;;;;5.90;5.40;;;9.70;99.90;;;;;;4987891;28;20484;-88
2023/10/06 07:53:36;;;;;;;7.40;6.55;;;9.80;99.90;;;;;;4981151;28;20027;-89
2023/10/06 07:56:06;;;;;;;10.20;6.95;;;9.80;99.90;;;;;;4979283;28;20035;-90
2023/10/06 07:58:32;;;;;;;8.23;7.13;;;9.80;99.90;;;;;;4977973;28;20029;-89
2023/10/06 08:01:02;;;;;;;8.60;7.68;;;9.80;99.90;;;;;;4977191;28;20031;-89
2023/10/06 08:03:28;;;;;;;8.30;7.45;;;9.90;99.90;;;;;;4978061;28;20027;-89
2023/10/06 08:05:55;;;;;;;8.55;7.75;;;10.00;99.90;;;;;;4978044;28;20027;-88
2023/10/06 08:08:21;;;;;;;8.98;7.20;;;10.10;99.90;;;;;;4977459;28;20026;-91
2023/10/06 08:10:49;;;;;;;7.68;6.97;;;10.20;99.90;;;;;;4977866;28;20382;-89
2023/10/06 08:13:15;;;;;;;7.10;6.38;;;10.30;99.90;;;;;;4992850;28;20091;-91
2023/10/06 08:15:44;;;;;;;7.68;6.97;;;10.40;99.90;;;;;;4978233;28;20086;-88
2023/10/06 08:18:12;;;;;;;8.35;6.97;;;10.50;99.90;;;;;;4978272;28;20307;-90
2023/10/06 08:20:40;;;;;;;8.45;7.10;;;10.60;99.90;;;;;;4977426;28;20041;-88
2023/10/06 08:23:07;;;;;;;8.27;7.38;;;10.70;99.90;;;;;;4975239;28;20023;-88
2023/10/06 08:25:34;;;;;;;7.20;6.55;;;10.90;99.90;;;;;;4977972;28;20042;-88
2023/10/06 08:28:04;;;;;;;7.78;5.90;;;10.80;99.90;;;;;;4978093;28;20083;-88
2023/10/06 08:30:32;;;;;;;8.45;7.50;;;10.90;99.90;;;;;;4978232;28;20022;-88
2023/10/06 08:32:59;;;;;;;7.97;7.20;;;10.90;99.90;;;;;;4977197;28;20030;-90
2023/10/06 08:35:26;;;;;;;10.60;6.75;;;11.00;99.90;;;;;;4975535;28;20031;-90
2023/10/06 08:37:52;;;;;;;10.05;8.80;;;11.10;99.90;;;;;;4977309;28;20097;-89
2023/10/06 08:40:22;;;;;;;11.13;7.45;;;11.20;99.90;;;;;;4976195;28;20014;-89
2023/10/06 08:42:53;;;;;;;8.98;7.50;;;11.40;99.90;;;;;;4975636;28;20025;-89
2023/10/06 08:45:24;;;;;;;10.65;7.75;;;11.50;99.90;;;;;;4976281;28;20030;-89
2023/10/06 08:47:58;;;;;;;8.90;8.10;;;11.70;99.90;;;;;;4976444;28;20039;-88
2023/10/06 08:50:31;;;;;;;9.55;8.50;;;11.80;99.90;;;;;;4977443;28;20019;-87
2023/10/06 08:52:59;;;;;;;11.27;10.07;;;11.90;99.90;;;;;;4977968;28;20100;-88
2023/10/06 08:55:27;;;;;;;;;;;11.90;99.90;;;;;;4978327;28;20035;-87
2023/10/06 08:57:54;;;;;;;11.73;8.02;;;12.20;99.90;;;;;;4978844;28;19929;-89
2023/10/06 09:00:26;;;;;;;9.02;7.50;;;12.40;99.90;;;;;;4979017;28;20081;-90
2023/10/06 09:02:54;;;;;;;10.00;8.07;;;12.60;99.20;;;;;;4977529;28;20050;-90
2023/10/06 09:05:23;;;;;;;10.52;7.72;;;12.50;98.70;;;;;;4973954;28;20028;-88
2023/10/06 09:07:57;;;;;;;11.00;8.80;;;12.70;99.30;;;;;;4974253;28;20097;-91
2023/10/06 09:10:23;;;;;;;9.88;8.50;;;12.80;98.50;;;;;;4977134;28;20030;-90
2023/10/06 09:13:04;;;;;;;11.00;8.52;;;12.90;97.80;;;;;;4977857;28;20047;-90
2023/10/06 09:15:30;;;;;;;10.75;9.20;;;13.00;96.60;;;;;;4964253;28;20026;-89
2023/10/06 09:17:57;;;;;;;10.90;8.13;;;13.00;97.00;;;;;;4977811;28;20035;-90
2023/10/06 09:20:36;;;;;;;9.18;7.30;;;13.10;96.70;;;;;;4979452;28;20022;-90
2023/10/06 09:23:03;;;;;;;8.63;7.28;;;13.30;96.10;;;;;;4979450;28;20023;-89
2023/10/06 09:25:46;;;;;;;9.70;6.63;;;13.30;96.10;;;;;;4980765;28;20033;-89
2023/10/06 09:28:17;;;;;;;10.75;8.13;;;13.20;94.30;;;;;;5004333;28;20091;-93
2023/10/06 09:31:01;;;;;;;10.48;6.40;;;13.30;93.80;;;;;;4992324;28;20023;-93
2023/10/06 09:33:36;;;;;;;10.20;8.05;;;13.30;95.40;;;;;;4974940;28;20023;-89
2023/10/06 09:36:22;;;;;;;9.88;7.78;;;13.50;95.00;;;;;;4978348;28;20027;-89
2023/10/06 09:38:48;;;;;;;10.45;7.55;;;13.70;95.20;;;;;;4977930;28;20045;-87
2023/10/06 09:41:34;;;;;;;12.85;8.13;;;13.60;93.60;;;;;;4977467;28;20027;-88
2023/10/06 09:44:11;;;;;;;14.23;8.65;;;13.70;93.90;;;;;;4978333;28;20046;-91
2023/10/06 09:46:41;;;;;;;11.05;8.50;;;14.00;94.40;;;;;;4978460;28;20537;-90
2023/10/06 09:49:09;;;;;;;9.55;7.95;;;14.20;93.50;;;;;;4978068;28;20101;-91
2023/10/06 09:51:38;;;;;;;8.73;7.78;;;14.50;90.50;;;;;;4992955;28;20054;-88
2023/10/06 09:54:09;;;;;;;10.40;7.40;;;14.60;90.70;;;;;;4979106;28;20049;-91
2023/10/06 09:56:36;;;;;;;9.52;6.72;;;14.90;89.30;;;;;;4972374;28;20031;-89
2023/10/06 09:59:02;;;;;;;;;;;14.70;87.80;;;;;;4978686;28;20027;-91
2023/10/06 10:01:31;;;;;;;8.95;6.80;;;15.00;87.80;;;;;;4977328;28;19960;-90
2023/10/06 10:03:57;;;;;;;7.47;6.40;;;15.10;87.10;;;;;;4976464;28;20023;-90
2023/10/06 10:06:23;;;;;;;8.52;5.38;;;15.30;87.50;;;;;;4977137;28;20461;-91
2023/10/06 10:08:51;;;;;;;9.82;7.07;;;15.30;85.50;;;;;;4977498;28;20027;-91
2023/10/06 10:11:28;;;;;;;7.25;6.47;;;15.40;86.30;;;;;;4981300;28;20026;-91
2023/10/06 10:14:03;;;;;;;8.60;5.97;;;15.80;86.30;;;;;;4983694;28;20109;-93
2023/10/06 10:16:48;;;;;;;7.82;6.90;;;15.50;85.00;;;;;;4985270;28;20019;-93
2023/10/06 10:19:18;;;;;;;9.15;6.72;;;15.60;84.60;;;;;;4984306;28;20062;-90
2023/10/06 10:21:45;;;;;;;7.95;5.40;;;16.00;82.50;;;;;;4995895;28;20046;-92
2023/10/06 10:24:13;;;;;;;8.75;5.90;;;16.20;79.40;;;;;;4991302;28;20033;-92
2023/10/06 10:26:39;;;;;;;8.50;5.85;;;16.30;75.60;;;;;;4981133;28;20023;-92
2023/10/06 10:29:17;;;;;;;7.68;6.03;;;16.60;75.90;;;;;;4981899;28;20116;-89
2023/10/06 10:32:09;;;;;;;7.43;6.00;;;16.50;76.10;;;;;;4985149;28;20019;-91
2023/10/06 10:35:16;;;;;;;9.10;5.53;;;16.70;76.10;;;;;;4983932;28;20022;-91
2023/10/06 10:38:06;;;;;;;7.75;5.18;;;17.10;72.50;;;;;;4986601;28;20035;-93
2023/10/06 10:40:52;;;;;;;8.07;6.35;;;17.00;72.40;;;;;;4990336;28;20038;-92
2023/10/06 10:43:20;;;;;;;10.15;7.05;;;17.30;73.10;;;;;;4986572;28;20058;-95
2023/10/06 10:45:47;;;;;;;8.63;6.82;;;17.60;73.40;;;;;;4986094;28;20027;-90
2023/10/06 10:48:15;;;;;;;7.38;6.57;;;17.80;73.70;;;;;;4986792;28;20088;-92
2023/10/06 10:50:52;;;;;;;9.10;6.88;;;18.00;73.80;;;;;;4986669;28;20023;-93
2023/10/06 10:53:22;;;;;;;6.93;6.18;;;18.30;73.50;;;;;;4985614;28;20029;-91
2023/10/06 10:55:48;;;;;;;7.32;5.70;;;18.00;71.90;;;;;;4975926;28;20023;-92
2023/10/06 10:58:45;;;;;;;8.90;6.40;;;17.70;70.90;;;;;;4984808;28;20031;-92
2023/10/06 11:01:31;;;;;;;6.55;4.50;;;18.00;70.30;;;;;;4984506;28;20495;-92
2023/10/06 11:04:09;;;;;;;9.85;5.53;;;18.30;68.40;;;;;;4984880;28;20027;-92
2023/10/06 11:06:38;;;;;;;8.70;6.32;;;18.40;66.10;;;;;;4984505;28;20022;-93
2023/10/06 11:09:22;;;;;;;8.68;6.13;;;18.80;66.10;;;;;;4986120;28;20046;-92
2023/10/06 11:11:51;;;;;;;7.40;6.63;;;18.80;67.00;;;;;;4978092;28;20038;-92
2023/10/06 11:14:17;;;;;;;9.48;6.75;;;19.10;65.80;;;;;;4985531;28;20035;-92
2023/10/06 11:16:49;;;;;;;9.23;6.65;;;19.10;66.90;;;;;;4985524;28;20058;-91
2023/10/06 11:19:15;;;;;;;8.35;5.53;;;19.60;65.90;;;;;;4986299;28;20033;-94
2023/10/06 11:21:44;;;;;;;8.48;6.10;;;19.80;62.30;;;;;;4985566;28;20489;-93
2023/10/06 11:24:10;;;;;;;8.93;5.85;;;20.00;61.30;;;;;;4986224;28;20034;-92
2023/10/06 11:26:36;;;;;;;9.90;7.20;;;19.70;63.50;;;;;;4986472;28;20040;-93
2023/10/06 11:29:03;;;;;;;6.32;5.53;;;19.80;65.20;;;;;;4982468;28;20086;-93
2023/10/06 11:31:29;;;;;;;7.25;3.45;;;20.20;61.40;;;;;;4983662;28;20417;-94
2023/10/06 11:33:56;;;;;;;8.65;5.45;;;20.30;60.60;;;;;;4987324;28;20027;-93
2023/10/06 11:36:22;;;;;;;8.00;6.15;;;19.60;61.40;;;;;;4987904;28;20034;-93
2023/10/06 11:38:48;;;;;;;6.25;4.93;;;19.60;64.00;;;;;;4986850;28;20051;-93
2023/10/06 11:41:24;;;;;;;6.80;4.72;;;19.50;62.90;;;;;;4987816;28;20035;-91
2023/10/06 11:43:57;;;;;;;6.55;4.50;;;20.00;64.40;;;;;;4987391;28;20026;-92
2023/10/06 11:46:25;;;;;;;7.32;4.95;;;20.30;61.40;;;;;;4985843;28;20133;-92
2023/10/06 11:49:07;;;;;;;7.85;5.13;;;20.60;60.50;;;;;;4986048;28;20023;-90
2023/10/06 11:51:39;;;;;;;6.22;4.15;;;20.70;59.00;;;;;;4986979;28;20022;-93
2023/10/06 11:54:05;;;;;;;8.00;4.25;;;21.10;57.90;;;;;;4987321;28;20065;-93
2023/10/06 11:56:32;;;;;;;4.97;3.85;;;21.50;57.20;;;;;;4987107;28;20500;-92
2023/10/06 11:58:58;;;;;;;5.20;3.95;;;21.50;54.60;;;;;;4985207;28;20025;-91
2023/10/06 12:01:36;;;;;;;5.50;4.72;;;21.50;54.00;;;;;;4982286;28;20549;-91
2023/10/06 12:04:06;;;;;;;5.68;4.13;;;21.40;53.80;;;;;;4986000;28;20022;-92
2023/10/06 12:06:39;;;;;;;4.47;3.40;;;21.80;53.60;;;;;;4980683;28;20617;-94
2023/10/06 12:09:13;;;;;;;7.22;3.95;;;21.60;52.10;;;;;;4981733;28;20044;-93
2023/10/06 12:11:39;;;;;;;6.63;3.70;;;21.50;53.40;;;;;;4978765;28;20024;-92
2023/10/06 12:14:05;;;;;;;6.20;4.05;;;21.40;52.10;;;;;;4981885;28;20069;-92
2023/10/06 12:16:31;;;;;;;6.57;4.68;;;21.30;54.10;;;;;;4983430;28;20027;-92
2023/10/06 12:18:57;;;;;;;6.57;3.65;;;21.90;53.20;;;;;;4984590;28;20085;-92
2023/10/06 12:21:23;;;;;;;6.03;4.35;;;22.40;50.80;;;;;;4982877;28;20027;-92
2023/10/06 12:23:52;;;;;;;7.72;4.57;;;22.50;50.00;;;;;;4989476;28;20034;-94
2023/10/06 12:26:18;;;;;;;5.75;4.63;;;22.90;49.00;;;;;;4992304;28;20069;-93
2023/10/06 12:28:44;;;;;;;6.80;3.42;;;22.40;49.00;;;;;;4991839;28;20030;-94
2023/10/06 12:31:11;;;;;;;7.18;5.28;;;22.70;49.20;;;;;;4988585;28;20027;-93
2023/10/06 12:33:38;;;;;;;7.05;4.15;;;22.50;48.90;;;;;;4984818;28;20030;-92
2023/10/06 12:36:12;;;;;;;7.70;4.65;;;22.40;47.30;;;;;;4993425;28;20026;-94
2023/10/06 12:38:39;;;;;;;;;;;23.10;47.10;;;;;;4998149;28;20018;-94
2023/10/06 12:41:06;;;;;;;7.00;3.72;;;22.50;47.30;;;;;;4990163;28;19914;-93
2023/10/06 12:43:35;;;;;;;6.35;3.38;;;22.10;46.40;;;;;;4989251;28;20023;-92
2023/10/06 12:46:03;;;;;;;8.80;4.15;;;22.50;45.40;;;;;;4989254;28;20030;-93
2023/10/06 12:48:30;;;;;;;5.32;4.28;;;22.70;45.00;;;;;;4989899;28;20019;-94
2023/10/06 12:50:56;;;;;;;8.48;4.30;;;22.80;45.90;;;;;;4988861;28;20046;-92
2023/10/06 12:53:22;;;;;;;11.55;5.00;;;23.10;45.80;;;;;;4999246;28;20027;-92
2023/10/06 12:55:56;;;;;;;12.05;4.95;;;23.10;46.90;;;;;;4991463;28;20030;-93
2023/10/06 12:58:22;;;;;;;6.07;3.63;;;22.80;47.20;;;;;;4988468;28;20179;-92
2023/10/06 13:00:48;;;;;;;6.72;4.65;;;22.50;46.30;;;;;;4987538;28;20030;-93
2023/10/06 13:03:17;;;;;;;5.40;3.95;;;22.30;44.20;;;;;;4988951;28;20026;-93
2023/10/06 13:05:47;;;;;;;10.93;4.25;;;22.50;44.80;;;;;;4987183;28;20023;-93
2023/10/06 13:08:17;;;;;;;10.00;5.82;;;22.20;43.70;;;;;;4986457;28;20035;-93
2023/10/06 13:10:43;;;;;;;8.27;4.63;;;22.50;43.80;;;;;;4986153;28;20088;-92
2023/10/06 13:13:12;;;;;;;9.52;4.53;;;22.60;44.10;;;;;;4986381;28;20055;-91